createdAt,value
2018-09-18T00:00:02.853Z,29.07
2018-09-18T00:02:31.167Z,18.93
2018-09-18T00:04:59.474Z,21.70
2018-09-18T00:07:27.777Z,25.00
2018-09-18T00:09:56.085Z,30.23
2018-09-18T00:12:24.386Z,24.73
2018-09-18T00:14:52.682Z,22.17
2018-09-18T00:17:21.000Z,22.90
2018-09-18T00:19:49.274Z,19.90
2018-09-18T00:22:17.566Z,30.27
2018-09-18T00:24:45.877Z,21.83
2018-09-18T00:27:14.178Z,16.90
2018-09-18T00:29:42.502Z,25.83
2018-09-18T00:32:10.795Z,18.97
2018-09-18T00:34:39.085Z,22.50
2018-09-18T00:37:07.385Z,21.57
2018-09-18T00:39:35.681Z,26.00
2018-09-18T00:42:03.985Z,21.77
2018-09-18T00:44:32.285Z,22.47
2018-09-18T00:47:00.578Z,22.73
2018-09-18T00:49:28.882Z,22.23
2018-09-18T00:51:57.177Z,23.17
2018-09-18T00:54:25.486Z,21.37
2018-09-18T00:56:53.793Z,24.90
2018-09-18T00:59:22.101Z,32.80
2018-09-18T01:01:50.393Z,22.73
2018-09-18T01:04:18.701Z,17.13
2018-09-18T01:06:47.006Z,26.07
2018-09-18T01:09:15.306Z,20.80
2018-09-18T01:11:43.610Z,21.90
2018-09-18T01:14:11.910Z,24.93
2018-09-18T01:16:40.213Z,23.27
2018-09-18T01:19:08.523Z,22.37
2018-09-18T01:21:36.829Z,19.40
2018-09-18T01:24:05.130Z,20.17
2018-09-18T01:26:33.489Z,21.47
2018-09-18T01:29:01.785Z,20.10
2018-09-18T01:31:30.081Z,25.33
2018-09-18T01:33:58.386Z,17.70
2018-09-18T01:36:26.677Z,25.43
2018-09-18T01:38:54.984Z,18.73
2018-09-18T01:41:23.273Z,19.13
2018-09-18T01:43:51.661Z,20.27
2018-09-18T01:46:19.882Z,29.43
2018-09-18T01:48:48.182Z,18.87
2018-09-18T01:51:16.490Z,21.40
2018-09-18T01:53:44.794Z,20.77
2018-09-18T01:56:13.109Z,22.10
2018-09-18T01:58:41.418Z,24.83
2018-09-18T02:01:09.725Z,17.37
2018-09-18T02:03:38.026Z,21.50
2018-09-18T02:06:06.350Z,16.83
2018-09-18T02:08:34.658Z,17.60
2018-09-18T02:11:02.962Z,15.80
2018-09-18T02:13:31.272Z,20.47
2018-09-18T02:15:59.565Z,16.80
2018-09-18T02:18:27.853Z,17.13
2018-09-18T02:20:56.153Z,16.43
2018-09-18T02:23:24.454Z,18.83
2018-09-18T02:25:52.765Z,14.90
2018-09-18T02:28:21.061Z,24.97
2018-09-18T02:30:49.375Z,20.93
2018-09-18T02:33:17.663Z,19.70
2018-09-18T02:35:45.980Z,20.20
2018-09-18T02:38:14.274Z,24.77
2018-09-18T02:40:42.585Z,20.40
2018-09-18T02:43:10.897Z,26.70
2018-09-18T02:45:39.189Z,21.83
2018-09-18T02:48:07.505Z,28.90
2018-09-18T02:50:35.798Z,18.63
2018-09-18T02:53:04.102Z,26.23
2018-09-18T02:55:32.405Z,21.17
2018-09-18T02:58:00.705Z,26.30
2018-09-18T03:00:29.013Z,40.20
2018-09-18T03:02:57.310Z,23.40
2018-09-18T03:05:25.617Z,19.70
2018-09-18T03:07:53.932Z,21.50
2018-09-18T03:10:22.218Z,20.70
2018-09-18T03:12:50.529Z,21.03
2018-09-18T03:15:18.814Z,27.07
2018-09-18T03:17:47.134Z,19.00
2018-09-18T03:20:15.425Z,18.20
2018-09-18T03:22:43.776Z,20.10
2018-09-18T03:25:12.169Z,21.47
2018-09-18T03:27:40.450Z,17.90
2018-09-18T03:30:08.774Z,22.60
2018-09-18T03:32:37.069Z,27.10
2018-09-18T03:35:05.386Z,26.40
2018-09-18T03:37:33.697Z,21.40
2018-09-18T03:40:02.003Z,14.77
2018-09-18T03:42:30.351Z,18.97
2018-09-18T03:44:59.255Z,19.20
2018-09-18T03:47:27.570Z,18.60
2018-09-18T03:49:55.885Z,19.60
2018-09-18T03:52:24.189Z,19.30
2018-09-18T03:54:52.505Z,27.50
2018-09-18T03:57:20.805Z,33.73
2018-09-18T03:59:49.127Z,24.20
2018-09-18T04:02:17.438Z,26.37
2018-09-18T04:04:45.745Z,29.10
2018-09-18T04:07:14.071Z,25.67
2018-09-18T04:09:42.385Z,24.10
2018-09-18T04:12:10.694Z,19.80
2018-09-18T04:14:39.010Z,28.53
2018-09-18T04:17:07.350Z,22.57
2018-09-18T04:19:35.674Z,21.40
2018-09-18T04:22:03.978Z,19.40
2018-09-18T04:24:32.298Z,21.80
2018-09-18T04:27:00.611Z,20.03
2018-09-18T04:29:28.909Z,20.67
2018-09-18T04:31:57.237Z,21.73
2018-09-18T04:34:25.537Z,20.00
2018-09-18T04:36:53.842Z,24.93
2018-09-18T04:39:22.155Z,21.90
2018-09-18T04:41:50.462Z,26.10
2018-09-18T04:44:18.784Z,24.00
2018-09-18T04:46:47.082Z,21.63
2018-09-18T04:49:15.400Z,23.23
2018-09-18T04:51:43.717Z,31.57
2018-09-18T04:54:12.025Z,26.90
2018-09-18T04:56:40.346Z,20.73
2018-09-18T04:59:08.650Z,20.23
2018-09-18T05:01:36.955Z,26.23
2018-09-18T05:04:05.265Z,28.67
2018-09-18T05:06:33.570Z,26.03
2018-09-18T05:09:01.897Z,31.30
2018-09-18T05:11:30.201Z,32.80
2018-09-18T05:13:58.573Z,19.83
2018-09-18T05:16:26.865Z,24.73
2018-09-18T05:18:55.166Z,24.60
2018-09-18T05:21:23.486Z,20.50
2018-09-18T05:23:51.797Z,27.33
2018-09-18T05:26:20.109Z,25.03
2018-09-18T05:28:48.422Z,32.60
2018-09-18T05:31:16.742Z,22.97
2018-09-18T05:33:45.098Z,26.73
2018-09-18T05:36:15.593Z,26.17
2018-09-18T05:38:43.897Z,26.90
2018-09-18T05:41:12.213Z,30.13
2018-09-18T05:43:40.518Z,24.77
2018-09-18T05:46:08.857Z,26.93
2018-09-18T05:48:37.174Z,24.77
2018-09-18T05:51:05.469Z,28.67
2018-09-18T05:53:33.779Z,27.90
2018-09-18T05:56:02.114Z,27.60
2018-09-18T05:58:30.390Z,26.53
2018-09-18T06:00:58.689Z,24.27
2018-09-18T06:03:26.988Z,24.50
2018-09-18T06:05:55.298Z,22.97
2018-09-18T06:08:23.594Z,25.53
2018-09-18T06:10:51.909Z,23.60
2018-09-18T06:13:20.217Z,35.80
2018-09-18T06:15:48.501Z,43.73
2018-09-18T06:18:16.806Z,34.30
2018-09-18T06:20:45.102Z,35.60
2018-09-18T06:23:13.421Z,34.83
2018-09-18T06:25:42.833Z,26.17
2018-09-18T06:28:11.151Z,27.43
2018-09-18T06:30:39.434Z,32.03
2018-09-18T06:33:07.789Z,29.67
2018-09-18T06:35:36.110Z,28.97
2018-09-18T06:38:04.503Z,34.27
2018-09-18T06:40:32.845Z,32.03
2018-09-18T06:43:01.137Z,31.60
2018-09-18T06:45:29.433Z,35.47
2018-09-18T06:47:57.757Z,41.67
2018-09-18T06:50:26.047Z,31.83
2018-09-18T06:52:54.342Z,31.47
2018-09-18T06:55:22.641Z,36.23
2018-09-18T06:57:50.937Z,32.07
2018-09-18T07:00:19.266Z,35.73
2018-09-18T07:02:47.557Z,41.57
2018-09-18T07:05:15.900Z,33.20
2018-09-18T07:07:44.201Z,33.00
2018-09-18T07:10:12.505Z,29.37
2018-09-18T07:12:40.826Z,29.93
2018-09-18T07:15:09.119Z,35.63
2018-09-18T07:17:37.412Z,25.80
2018-09-18T07:20:05.722Z,29.53
2018-09-18T07:22:34.021Z,33.43
2018-09-18T07:25:02.455Z,31.93
2018-09-18T07:27:30.666Z,30.07
2018-09-18T07:29:58.965Z,31.90
2018-09-18T07:32:27.270Z,33.27
2018-09-18T07:34:55.567Z,28.90
2018-09-18T07:37:23.895Z,30.67
2018-09-18T07:39:52.216Z,29.77
2018-09-18T07:42:20.590Z,31.37
2018-09-18T07:44:48.901Z,29.40
2018-09-18T07:47:17.194Z,30.73
2018-09-18T07:49:45.506Z,29.83
2018-09-18T07:52:13.867Z,25.40
2018-09-18T07:54:42.110Z,35.93
2018-09-18T07:57:10.416Z,29.07
2018-09-18T07:59:38.715Z,33.10
2018-09-18T08:02:07.028Z,31.07
2018-09-18T08:04:35.322Z,28.73
2018-09-18T08:07:03.619Z,26.07
2018-09-18T08:09:31.926Z,33.87
2018-09-18T08:12:00.217Z,28.40
2018-09-18T08:14:28.531Z,22.37
2018-09-18T08:16:56.827Z,30.10
2018-09-18T08:19:25.257Z,25.67
2018-09-18T08:21:53.484Z,27.93
2018-09-18T08:24:21.746Z,31.03
2018-09-18T08:26:50.085Z,30.23
2018-09-18T08:29:18.382Z,32.13
2018-09-18T08:31:46.677Z,40.10
2018-09-18T08:34:15.012Z,27.37
2018-09-18T08:36:43.309Z,31.27
2018-09-18T08:39:11.627Z,26.77
2018-09-18T08:41:39.953Z,24.17
2018-09-18T08:44:12.141Z,30.80
2018-09-18T08:46:40.422Z,24.40
2018-09-18T08:49:08.735Z,34.30
2018-09-18T08:51:37.099Z,29.83
2018-09-18T08:54:05.386Z,26.63
2018-09-18T08:56:33.694Z,28.43
2018-09-18T08:59:02.008Z,32.70
2018-09-18T09:01:30.314Z,26.73
2018-09-18T09:03:58.688Z,32.73
2018-09-18T09:06:26.980Z,50.80
2018-09-18T09:08:55.524Z,38.73
2018-09-18T09:11:23.640Z,27.23
2018-09-18T09:13:51.927Z,27.03
2018-09-18T09:16:20.243Z,34.23
2018-09-18T09:18:48.550Z,25.87
2018-09-18T09:21:16.929Z,36.20
2018-09-18T09:23:45.173Z,25.03
2018-09-18T09:26:13.475Z,36.63
2018-09-18T09:28:41.817Z,25.00
2018-09-18T09:31:10.091Z,34.57
2018-09-18T09:33:38.382Z,34.57
2018-09-18T09:36:06.737Z,29.97
2018-09-18T09:38:35.040Z,33.70
2018-09-18T09:41:03.346Z,29.27
2018-09-18T09:43:31.674Z,26.03
2018-09-18T09:46:00.012Z,28.43
2018-09-18T09:48:28.369Z,34.30
2018-09-18T09:50:56.684Z,28.03
2018-09-18T09:53:24.975Z,26.50
2018-09-18T09:55:53.270Z,20.60
2018-09-18T09:58:21.582Z,37.63
2018-09-18T10:00:49.909Z,30.70
2018-09-18T10:03:18.204Z,25.93
2018-09-18T10:05:46.528Z,28.30
2018-09-18T10:08:14.827Z,21.13
2018-09-18T10:10:43.272Z,27.57
2018-09-18T10:13:11.459Z,22.30
2018-09-18T10:15:39.764Z,22.00
2018-09-18T10:18:08.087Z,23.73
2018-09-18T10:20:36.374Z,33.10
2018-09-18T10:23:04.671Z,19.83
2018-09-18T10:25:32.970Z,20.40
2018-09-18T10:28:01.278Z,18.23
2018-09-18T10:30:29.593Z,22.50
2018-09-18T10:32:57.894Z,32.87
2018-09-18T10:35:26.216Z,18.80
2018-09-18T10:37:54.518Z,17.17
2018-09-18T10:40:22.791Z,22.10
2018-09-18T10:42:51.172Z,24.00
2018-09-18T10:45:19.422Z,19.07
2018-09-18T10:47:47.711Z,17.63
2018-09-18T10:50:16.019Z,25.07
2018-09-18T10:52:44.365Z,20.63
2018-09-18T10:55:12.631Z,14.93
2018-09-18T10:57:40.943Z,23.80
2018-09-18T11:00:09.272Z,15.43
2018-09-18T11:02:37.563Z,21.33
2018-09-18T11:05:05.882Z,14.93
2018-09-18T11:07:34.234Z,18.83
2018-09-18T11:10:02.550Z,16.93
2018-09-18T11:12:30.862Z,15.97
2018-09-18T11:14:59.136Z,14.37
2018-09-18T11:17:27.442Z,17.47
2018-09-18T11:19:55.789Z,10.93
2018-09-18T11:22:24.069Z,13.50
2018-09-18T11:24:52.392Z,16.20
2018-09-18T11:27:20.662Z,15.70
2018-09-18T11:29:48.959Z,17.30
2018-09-18T11:32:17.247Z,17.17
2018-09-18T11:34:45.567Z,11.27
2018-09-18T11:37:13.939Z,13.33
2018-09-18T11:39:42.222Z,13.47
2018-09-18T11:42:10.534Z,13.33
2018-09-18T11:44:38.834Z,21.03
2018-09-18T11:47:07.130Z,16.83
2018-09-18T11:49:35.445Z,17.00
2018-09-18T11:52:03.759Z,13.13
2018-09-18T11:54:32.155Z,16.63
2018-09-18T11:57:00.535Z,14.83
2018-09-18T11:59:28.812Z,12.20
2018-09-18T12:01:57.103Z,20.80
2018-09-18T12:04:25.435Z,21.47
2018-09-18T12:06:53.707Z,13.17
2018-09-18T12:09:22.015Z,10.40
2018-09-18T12:11:50.322Z,15.67
2018-09-18T12:14:18.621Z,22.13
2018-09-18T12:16:46.920Z,18.50
2018-09-18T12:19:15.234Z,14.13
2018-09-18T12:21:43.526Z,21.73
2018-09-18T12:24:11.827Z,16.83
2018-09-18T12:26:40.139Z,17.27
2018-09-18T12:29:08.434Z,12.03
2018-09-18T12:31:36.736Z,16.57
2018-09-18T12:34:05.043Z,13.80
2018-09-18T12:36:33.346Z,14.27
2018-09-18T12:39:01.660Z,14.43
2018-09-18T12:41:30.055Z,13.63
2018-09-18T12:43:58.268Z,12.97
2018-09-18T12:46:26.567Z,15.80
2018-09-18T12:48:54.898Z,11.97
2018-09-18T12:51:23.189Z,16.50
2018-09-18T12:53:51.536Z,11.73
2018-09-18T12:56:19.810Z,19.00
2018-09-18T12:58:48.122Z,19.67
2018-09-18T13:01:16.431Z,14.60
2018-09-18T13:03:44.739Z,12.47
2018-09-18T13:06:13.165Z,15.70
2018-09-18T13:08:41.339Z,12.97
2018-09-18T13:11:09.655Z,12.33
2018-09-18T13:13:38.021Z,12.60
2018-09-18T13:16:06.266Z,24.43
2018-09-18T13:18:34.578Z,12.10
2018-09-18T13:21:02.955Z,12.70
2018-09-18T13:23:31.338Z,20.10
2018-09-18T13:25:59.638Z,16.23
2018-09-18T13:28:27.936Z,13.70
2018-09-18T13:30:56.234Z,13.33
2018-09-18T13:33:24.542Z,18.53
2018-09-18T13:35:52.839Z,20.70
2018-09-18T13:38:21.150Z,13.27
2018-09-18T13:40:49.507Z,14.30
2018-09-18T13:43:17.758Z,16.17
2018-09-18T13:45:46.093Z,19.80
2018-09-18T13:48:14.399Z,16.17
2018-09-18T13:50:42.698Z,14.63
2018-09-18T13:53:11.003Z,13.47
2018-09-18T13:55:39.453Z,17.13
2018-09-18T13:58:07.635Z,15.67
2018-09-18T14:00:35.934Z,20.23
2018-09-18T14:03:04.241Z,13.30
2018-09-18T14:05:32.640Z,17.53
2018-09-18T14:08:00.848Z,14.37
2018-09-18T14:10:29.163Z,18.90
2018-09-18T14:12:57.467Z,18.70
2018-09-18T14:15:25.767Z,16.07
2018-09-18T14:17:54.083Z,16.73
2018-09-18T14:20:22.476Z,19.70
2018-09-18T14:22:50.678Z,12.20
2018-09-18T14:25:18.995Z,20.83
2018-09-18T14:27:47.294Z,16.73
2018-09-18T14:30:15.592Z,14.17
2018-09-18T14:32:43.916Z,22.00
2018-09-18T14:35:12.212Z,18.20
2018-09-18T14:37:40.509Z,12.43
2018-09-18T14:40:08.828Z,11.90
2018-09-18T14:42:37.271Z,17.23
2018-09-18T14:45:05.574Z,20.13
2018-09-18T14:47:33.886Z,16.70
2018-09-18T14:50:02.901Z,14.90
2018-09-18T14:52:31.184Z,12.27
2018-09-18T14:54:59.498Z,18.03
2018-09-18T14:57:27.795Z,18.70
2018-09-18T14:59:56.110Z,14.20
2018-09-18T15:02:24.406Z,21.10
2018-09-18T15:04:52.752Z,16.27
2018-09-18T15:07:21.027Z,15.70
2018-09-18T15:09:49.311Z,18.47
2018-09-18T15:12:17.608Z,20.60
2018-09-18T15:14:45.988Z,14.53
2018-09-18T15:17:14.214Z,23.00
2018-09-18T15:19:42.516Z,12.60
2018-09-18T15:22:10.864Z,15.77
2018-09-18T15:24:39.146Z,18.07
2018-09-18T15:27:07.454Z,14.83
2018-09-18T15:29:35.747Z,16.00
2018-09-18T15:32:04.064Z,15.03
2018-09-18T15:34:32.355Z,15.10
2018-09-18T15:37:00.651Z,17.50
2018-09-18T15:39:29.047Z,16.30
2018-09-18T15:41:57.290Z,25.97
2018-09-18T15:44:25.586Z,16.60
2018-09-18T15:46:53.899Z,15.30
2018-09-18T15:49:22.190Z,15.17
2018-09-18T15:51:50.523Z,34.77
2018-09-18T15:54:18.804Z,24.97
2018-09-18T15:56:47.098Z,18.83
2018-09-18T15:59:15.594Z,17.57
2018-09-18T16:01:45.508Z,22.20
2018-09-18T16:04:13.809Z,14.70
2018-09-18T16:06:42.118Z,24.70
2018-09-18T16:09:10.467Z,15.27
2018-09-18T16:11:38.782Z,15.60
2018-09-18T16:14:07.077Z,13.80
2018-09-18T16:16:35.438Z,13.07
2018-09-18T16:19:03.738Z,18.10
2018-09-18T16:21:32.027Z,15.30
2018-09-18T16:24:00.342Z,31.73
2018-09-18T16:26:28.641Z,20.10
2018-09-18T16:28:56.959Z,20.60
2018-09-18T16:31:25.249Z,17.50
2018-09-18T16:33:53.542Z,15.17
2018-09-18T16:36:21.850Z,14.97
2018-09-18T16:38:50.150Z,19.37
2018-09-18T16:41:18.470Z,15.53
2018-09-18T16:43:46.812Z,16.80
2018-09-18T16:46:15.082Z,13.70
2018-09-18T16:48:43.496Z,16.80
2018-09-18T16:51:11.700Z,16.63
2018-09-18T16:53:40.014Z,16.27
2018-09-18T16:56:08.310Z,19.70
2018-09-18T16:58:36.686Z,15.83
2018-09-18T17:01:04.914Z,16.77
2018-09-18T17:03:33.244Z,22.83
2018-09-18T17:06:01.553Z,17.43
2018-09-18T17:08:29.859Z,17.40
2018-09-18T17:10:59.479Z,18.00
2018-09-18T17:13:27.894Z,14.30
2018-09-18T17:15:56.095Z,12.13
2018-09-18T17:18:24.788Z,12.30
2018-09-18T17:20:53.055Z,15.30
2018-09-18T17:23:21.369Z,12.40
2018-09-18T17:25:49.655Z,9.87
2018-09-18T17:28:18.028Z,16.33
2018-09-18T17:30:46.287Z,9.33
2018-09-18T17:33:14.685Z,10.30
2018-09-18T17:35:42.979Z,10.00
2018-09-18T17:38:11.242Z,10.23
2018-09-18T17:40:39.554Z,11.30
2018-09-18T17:43:07.845Z,12.53
2018-09-18T17:45:36.143Z,10.47
2018-09-18T17:48:04.480Z,15.43
2018-09-18T17:50:32.780Z,17.47
2018-09-18T17:53:01.083Z,19.37
2018-09-18T17:55:29.383Z,13.40
2018-09-18T17:57:57.703Z,15.47
2018-09-18T18:00:26.010Z,18.43
2018-09-18T18:02:54.306Z,8.93
2018-09-18T18:05:22.646Z,12.57
2018-09-18T18:07:50.895Z,9.40
2018-09-18T18:10:19.202Z,20.10
2018-09-18T18:12:47.494Z,8.17
2018-09-18T18:15:15.807Z,18.77
2018-09-18T18:17:44.113Z,8.70
2018-09-18T18:20:12.460Z,18.90
2018-09-18T18:22:40.707Z,12.63
2018-09-18T18:25:09.007Z,13.00
2018-09-18T18:27:37.318Z,9.07
2018-09-18T18:30:05.606Z,10.70
2018-09-18T18:32:33.925Z,24.87
2018-09-18T18:35:02.218Z,25.17
2018-09-18T18:37:30.515Z,21.80
2018-09-18T18:39:58.836Z,26.77
2018-09-18T18:42:27.126Z,25.50
2018-09-18T18:45:01.562Z,28.73
2018-09-18T18:47:29.961Z,54.13
2018-09-18T18:49:58.188Z,34.50
2018-09-18T18:52:26.484Z,40.77
2018-09-18T18:54:54.778Z,29.90
2018-09-18T18:57:23.090Z,34.40
2018-09-18T18:59:51.390Z,26.53
2018-09-18T19:02:19.702Z,36.17
2018-09-18T19:04:48.008Z,24.33
2018-09-18T19:07:16.349Z,11.70
2018-09-18T19:09:44.643Z,13.77
2018-09-18T19:12:12.966Z,10.57
2018-09-18T19:14:41.253Z,16.57
2018-09-18T19:17:09.555Z,23.30
2018-09-18T19:19:37.872Z,13.80
2018-09-18T19:22:06.165Z,10.60
2018-09-18T19:24:34.485Z,14.57
2018-09-18T19:27:02.788Z,8.37
2018-09-18T19:29:31.106Z,8.20
2018-09-18T19:31:59.576Z,11.23
2018-09-18T19:34:27.884Z,7.07
2018-09-18T19:36:56.179Z,7.87
2018-09-18T19:39:24.475Z,10.67
2018-09-18T19:41:52.783Z,7.40
2018-09-18T19:44:59.389Z,11.73
2018-09-18T19:47:27.725Z,14.23
2018-09-18T19:49:56.019Z,9.10
2018-09-18T19:52:24.413Z,9.80
2018-09-18T19:54:52.615Z,12.23
2018-09-18T19:57:22.095Z,9.90
2018-09-18T19:59:50.419Z,7.63
2018-09-18T20:02:18.710Z,10.43
2018-09-18T20:04:47.010Z,9.00
2018-09-18T20:07:15.311Z,8.27
2018-09-18T20:09:43.624Z,10.07
2018-09-18T20:12:12.330Z,8.10
2018-09-18T20:14:40.644Z,11.23
2018-09-18T20:17:08.934Z,15.17
2018-09-18T20:19:37.243Z,8.03
2018-09-18T20:22:05.530Z,13.70
2018-09-18T20:24:33.835Z,11.37
2018-09-18T20:27:02.131Z,13.63
2018-09-18T20:29:30.512Z,14.23
2018-09-18T20:31:58.814Z,10.33
2018-09-18T20:34:27.177Z,14.90
2018-09-18T20:36:55.481Z,10.43
2018-09-18T20:39:23.789Z,9.67
2018-09-18T20:41:52.126Z,11.47
2018-09-18T20:44:20.406Z,12.40
2018-09-18T20:46:48.739Z,13.10
2018-09-18T20:49:17.059Z,11.10
2018-09-18T20:51:46.261Z,9.20
2018-09-18T20:54:14.571Z,8.93
2018-09-18T20:56:42.864Z,6.90
2018-09-18T20:59:11.178Z,6.20
2018-09-18T21:01:39.480Z,19.70
2018-09-18T21:04:07.796Z,7.27
2018-09-18T21:06:36.100Z,9.80
2018-09-18T21:09:04.406Z,7.30
2018-09-18T21:11:32.714Z,10.57
2018-09-18T21:14:01.027Z,15.97
2018-09-18T21:16:29.346Z,9.17
2018-09-18T21:18:57.647Z,24.73
2018-09-18T21:21:25.976Z,11.00
2018-09-18T21:23:54.281Z,9.67
2018-09-18T21:26:22.575Z,19.90
2018-09-18T21:28:50.889Z,11.83
2018-09-18T21:31:19.207Z,8.23
2018-09-18T21:33:47.518Z,9.30
2018-09-18T21:36:15.821Z,10.13
2018-09-18T21:38:44.154Z,8.03
2018-09-18T21:41:12.444Z,15.60
2018-09-18T21:43:40.757Z,12.03
2018-09-18T21:46:09.063Z,9.20
2018-09-18T21:48:37.388Z,17.10
2018-09-18T21:51:05.754Z,10.10
2018-09-18T21:53:34.064Z,9.07
2018-09-18T21:56:02.382Z,9.63
2018-09-18T21:58:30.682Z,12.43
2018-09-18T22:00:58.990Z,13.83
2018-09-18T22:03:27.324Z,18.90
2018-09-18T22:05:55.666Z,21.40
2018-09-18T22:08:23.990Z,13.70
2018-09-18T22:10:52.295Z,15.23
2018-09-18T22:13:20.611Z,10.90
2018-09-18T22:15:48.919Z,23.13
2018-09-18T22:18:17.254Z,11.13
2018-09-18T22:20:45.571Z,12.10
2018-09-18T22:23:13.922Z,16.20
2018-09-18T22:25:42.245Z,16.90
2018-09-18T22:28:10.565Z,10.67
2018-09-18T22:30:38.888Z,7.50
2018-09-18T22:33:07.199Z,10.50
2018-09-18T22:35:35.508Z,8.80
2018-09-18T22:38:03.821Z,8.90
2018-09-18T22:40:32.125Z,10.40
2018-09-18T22:43:00.479Z,12.10
2018-09-18T22:45:28.759Z,10.30
2018-09-18T22:47:57.074Z,16.07
2018-09-18T22:50:25.375Z,8.57
2018-09-18T22:52:53.683Z,13.37
2018-09-18T22:55:22.005Z,10.43
2018-09-18T22:57:50.306Z,14.03
2018-09-18T23:00:18.622Z,12.70
2018-09-18T23:02:46.938Z,13.00
2018-09-18T23:05:15.259Z,13.07
2018-09-18T23:07:43.566Z,10.77
2018-09-18T23:10:11.871Z,17.40
2018-09-18T23:12:40.199Z,16.93
2018-09-18T23:15:08.524Z,15.20
2018-09-18T23:17:36.840Z,24.77
2018-09-18T23:20:05.150Z,10.63
2018-09-18T23:22:33.473Z,15.13
2018-09-18T23:25:01.784Z,13.07
2018-09-18T23:27:30.095Z,17.30
2018-09-18T23:29:58.415Z,14.10
2018-09-18T23:32:26.744Z,16.73
2018-09-18T23:34:55.058Z,15.63
2018-09-18T23:37:23.365Z,14.03
2018-09-18T23:39:51.683Z,10.80
2018-09-18T23:42:20.137Z,17.63
2018-09-18T23:44:48.301Z,10.30
2018-09-18T23:47:16.619Z,14.93
2018-09-18T23:49:44.926Z,17.10
2018-09-18T23:52:13.257Z,14.13
2018-09-18T23:54:41.554Z,19.03
2018-09-18T23:57:09.862Z,10.03
2018-09-18T23:59:38.184Z,12.10
